Date,TemperatureHighF,TemperatureAvgF,TemperatureLowF,DewpointHighF,DewpointAvgF,DewpointLowF,HumidityHigh,HumidityAvg,HumidityLow,PressureMaxIn,PressureMinIn,WindSpeedMaxMPH,WindSpeedAvgMPH,GustSpeedMaxMPH,PrecipitationSumIn
2013-3-1,36,31,27,33,25,19,98,79,61,29.78,29.60,12,1,12,0.09
2013-3-2,30,26,23,23,20,16,92,78,59,29.84,29.72,0,0,0,0.00
2013-3-3,31,25,22,22,17,10,92,74,44,29.75,29.69,0,0,0,0.00
2013-3-4,39,27,22,20,16,13,81,64,40,29.90,29.75,14,5,14,0.00
2013-3-5,38,29,24,23,20,17,89,69,45,29.93,29.84,10,1,10,0.04
2013-3-6,46,34,24,33,28,20,90,80,53,29.99,29.78,13,3,13,0.12
2013-3-7,40,35,31,35,30,21,98,84,52,30.13,29.95,10,1,10,0.00
2013-3-8,48,36,30,27,20,15,82,54,29,30.25,30.10,12,2,12,0.00
2013-3-9,58,38,26,33,25,19,98,64,25,30.28,30.07,8,1,8,0.00
2013-3-10,68,51,35,24,20,16,62,33,15,30.10,29.84,17,5,17,0.00
2013-3-11,60,54,52,41,24,20,57,31,25,29.87,29.54,18,7,18,0.00
2013-3-12,56,41,35,47,33,25,95,73,56,29.78,29.54,20,6,20,0.21
2013-3-13,44,34,24,33,22,12,84,64,38,29.81,29.66,24,5,24,0.00
2013-3-14,37,29,20,17,6,-2,77,40,22,29.90,29.78,28,7,28,0.00
2013-3-15,43,32,24,32,21,7,94,64,44,29.90,29.54,17,5,17,0.04
2013-3-16,31,26,20,19,13,10,77,57,47,29.81,29.66,13,3,13,0.00
2013-3-17,38,26,17,25,12,0,90,59,31,30.16,29.81,10,2,10,0.00
2013-3-18,35,26,16,31,14,2,98,63,31,30.16,29.57,12,4,12,0.00
2013-3-19,40,34,26,34,26,14,98,74,40,29.69,29.54,21,4,21,0.21
2013-3-20,41,29,23,23,17,8,82,65,29,29.72,29.63,17,2,17,0.00
2013-3-21,39,28,20,24,15,4,85,62,29,29.69,29.54,14,5,14,0.00
2013-3-22,37,32,25,27,24,18,94,74,51,29.78,29.57,13,5,13,0.04
2013-3-23,44,34,28,26,21,15,88,61,38,29.90,29.72,15,5,15,0.04
2013-3-24,44,34,25,29,20,11,90,59,32,29.87,29.60,9,2,9,0.00
2013-3-25,43,36,32,28,23,19,80,60,40,29.60,29.48,14,3,14,0.00
2013-3-26,52,40,31,30,25,18,84,58,30,29.84,29.57,9,3,9,0.00
2013-3-27,54,38,32,34,28,21,98,71,34,29.93,29.78,13,4,13,0.04
2013-3-28,49,39,34,36,31,21,98,74,38,30.04,29.90,12,3,12,0.04
2013-3-29,57,44,35,34,28,17,87,59,26,30.07,29.95,14,3,14,0.00
2013-3-30,60,42,29,30,21,13,86,49,19,30.04,29.93,8,2,8,0.00
2013-3-31,62,46,35,44,28,18,94,55,21,29.93,29.48,26,6,26,0.00